Time;durP1;ratioP1;P1;durP2;ratioP2;P2;SDS_P1;SDS_P2;PMS_P1;PMS_P2;Temp;Humidity;BMP_temperature;BMP_pressure;BME280_temperature;BME280_humidity;BME280_pressure;Samples;Min_cycle;Max_cycle;Signal;HPM_P1;HPM_P2
2023/04/18 00:01:52;;;;;;;11.53;10.47;;;9.40;88.10;;;;;;5080979;28;20195;-87
2023/04/18 00:04:18;;;;;;;11.80;10.77;;;9.50;88.50;;;;;;5085964;28;20182;-88
2023/04/18 00:06:43;;;;;;;11.73;10.60;;;9.40;87.20;;;;;;5099951;28;20541;-88
2023/04/18 00:09:09;;;;;;;12.77;11.57;;;9.30;87.30;;;;;;5100615;28;20230;-87
2023/04/18 00:11:34;;;;;;;12.30;11.10;;;9.30;87.30;;;;;;5100599;28;20179;-88
2023/04/18 00:14:02;;;;;;;11.37;10.37;;;9.30;87.10;;;;;;5099701;28;20711;-87
2023/04/18 00:16:27;;;;;;;13.37;10.67;;;9.30;87.00;;;;;;5099224;28;20250;-87
2023/04/18 00:18:54;;;;;;;10.87;9.97;;;9.20;86.30;;;;;;5099683;28;20227;-88
2023/04/18 00:21:22;;;;;;;11.80;10.60;;;9.20;86.10;;;;;;5099459;28;20588;-89
2023/04/18 00:23:47;;;;;;;12.47;11.37;;;9.10;86.30;;;;;;5100268;28;20242;-88
2023/04/18 00:26:13;;;;;;;11.10;10.10;;;9.10;86.30;;;;;;5099380;28;20214;-88
2023/04/18 00:28:38;;;;;;;11.87;10.83;;;9.00;86.60;;;;;;5099039;28;20618;-88
2023/04/18 00:31:04;;;;;;;11.97;10.97;;;8.90;86.80;;;;;;5099985;28;20171;-87
2023/04/18 00:33:30;;;;;;;11.93;10.83;;;9.00;88.00;;;;;;5099879;28;20212;-88
2023/04/18 00:35:55;;;;;;;12.23;11.23;;;9.00;86.40;;;;;;5098578;28;20183;-92
2023/04/18 00:38:21;;;;;;;12.17;11.03;;;8.90;86.90;;;;;;5100426;28;20244;-88
2023/04/18 00:40:47;;;;;;;12.00;11.00;;;8.90;86.70;;;;;;5099819;28;20708;-89
2023/04/18 00:43:13;;;;;;;12.73;11.43;;;8.90;86.70;;;;;;5100023;28;20292;-88
2023/04/18 00:45:39;;;;;;;12.07;10.97;;;8.80;87.00;;;;;;5100310;28;20178;-91
2023/04/18 00:48:05;;;;;;;19.80;12.63;;;8.80;87.00;;;;;;5088259;28;20207;-88
2023/04/18 00:50:31;;;;;;;12.43;11.23;;;8.80;87.10;;;;;;5100175;28;20203;-89
2023/04/18 00:52:57;;;;;;;12.43;11.33;;;8.90;86.90;;;;;;5111790;28;20183;-90
2023/04/18 00:55:23;;;;;;;11.70;10.70;;;8.80;87.10;;;;;;5110849;28;20204;-90
2023/04/18 00:57:49;;;;;;;13.27;12.07;;;8.80;87.40;;;;;;5114947;28;20182;-89
2023/04/18 01:00:15;;;;;;;12.17;11.07;;;8.90;87.10;;;;;;5115314;28;20199;-90
2023/04/18 01:02:41;;;;;;;12.13;11.07;;;8.90;86.70;;;;;;5102820;28;20555;-88
2023/04/18 01:05:07;;;;;;;11.93;10.83;;;8.80;87.00;;;;;;5104941;28;20182;-88
2023/04/18 01:07:36;;;;;;;11.97;10.90;;;8.80;86.30;;;;;;5098246;28;20217;-88
2023/04/18 01:10:03;;;;;;;12.27;11.17;;;8.90;86.10;;;;;;5104445;28;20194;-89
2023/04/18 01:12:29;;;;;;;12.37;11.27;;;8.80;86.70;;;;;;5102615;28;20179;-87
2023/04/18 01:14:56;;;;;;;12.33;11.13;;;8.90;87.40;;;;;;5099025;28;20194;-87
2023/04/18 01:17:27;;;;;;;12.17;11.07;;;8.80;87.00;;;;;;5092897;28;20271;-88
2023/04/18 01:20:00;;;;;;;11.87;10.77;;;8.80;87.20;;;;;;5080591;28;20231;-88
2023/04/18 01:22:31;;;;;;;12.23;11.13;;;8.90;86.50;;;;;;5081212;28;20203;-90
2023/04/18 01:24:57;;;;;;;12.10;11.00;;;8.90;86.20;;;;;;5081110;28;20188;-90
2023/04/18 01:27:23;;;;;;;12.50;11.40;;;8.90;86.40;;;;;;5084619;28;20206;-89
2023/04/18 01:29:49;;;;;;;11.83;10.83;;;8.90;87.30;;;;;;5088324;28;20196;-89
2023/04/18 01:32:19;;;;;;;12.67;11.37;;;8.90;85.80;;;;;;5090573;28;20171;-89
2023/04/18 01:34:44;;;;;;;11.57;10.60;;;8.90;86.40;;;;;;5096628;28;20183;-87
2023/04/18 01:37:10;;;;;;;12.70;11.53;;;8.90;85.90;;;;;;5097033;28;20185;-91
2023/04/18 01:39:36;;;;;;;11.20;10.30;;;8.90;85.70;;;;;;5096990;28;20195;-89
2023/04/18 01:42:01;;;;;;;10.57;9.63;;;9.00;85.30;;;;;;5099572;28;20190;-87
2023/04/18 01:44:27;;;;;;;12.03;10.93;;;9.00;85.70;;;;;;5101272;28;20190;-89
2023/04/18 01:46:52;;;;;;;12.40;11.20;;;8.90;85.80;;;;;;5100036;28;20232;-89
2023/04/18 01:49:18;;;;;;;11.90;10.63;;;8.80;85.40;;;;;;5099894;28;20206;-87
2023/04/18 01:51:44;;;;;;;12.50;11.33;;;8.80;85.20;;;;;;5098798;28;20205;-87
2023/04/18 01:54:09;;;;;;;12.73;11.57;;;8.80;85.90;;;;;;5099622;28;20183;-88
2023/04/18 01:56:35;;;;;;;11.63;10.60;;;8.80;86.00;;;;;;5099344;28;20187;-88
2023/04/18 01:59:00;;;;;;;12.07;10.70;;;8.80;85.70;;;;;;5082359;28;20259;-88
2023/04/18 02:01:26;;;;;;;13.73;11.00;;;8.80;86.10;;;;;;5077106;28;20358;-87
2023/04/18 02:03:52;;;;;;;11.90;10.73;;;8.80;86.60;;;;;;5078187;28;20503;-88
2023/04/18 02:06:17;;;;;;;11.37;10.37;;;8.70;86.60;;;;;;5078288;28;20171;-90
2023/04/18 02:08:43;;;;;;;11.53;10.53;;;8.80;86.50;;;;;;5077955;28;20211;-90
2023/04/18 02:11:08;;;;;;;12.87;11.70;;;8.80;86.50;;;;;;5078802;28;20207;-89
2023/04/18 02:13:34;;;;;;;13.63;11.20;;;8.80;86.50;;;;;;5095424;28;20187;-88
2023/04/18 02:15:59;;;;;;;11.10;10.03;;;8.80;86.20;;;;;;5080723;28;20203;-90
2023/04/18 02:18:26;;;;;;;12.17;11.07;;;8.80;86.20;;;;;;5081804;28;20210;-91
2023/04/18 02:20:52;;;;;;;12.90;11.63;;;8.70;86.10;;;;;;5081592;28;20281;-88
2023/04/18 02:23:18;;;;;;;12.70;11.47;;;8.70;87.10;;;;;;5080745;28;20225;-89
2023/04/18 02:25:43;;;;;;;13.60;11.63;;;8.70;86.70;;;;;;5087821;28;20187;-88
2023/04/18 02:28:09;;;;;;;12.57;11.40;;;8.70;86.70;;;;;;5081328;28;20219;-87
2023/04/18 02:30:35;;;;;;;12.17;10.97;;;8.70;87.00;;;;;;5082685;28;20195;-87
2023/04/18 02:33:00;;;;;;;12.97;11.67;;;8.70;86.30;;;;;;5100965;28;20205;-89
2023/04/18 02:35:26;;;;;;;12.60;11.43;;;8.70;86.50;;;;;;5099435;28;20175;-88
2023/04/18 02:37:52;;;;;;;13.33;12.13;;;8.70;86.10;;;;;;5099666;28;20187;-88
2023/04/18 02:40:18;;;;;;;13.00;11.90;;;8.70;86.20;;;;;;5100753;28;20207;-87
2023/04/18 02:42:44;;;;;;;12.63;11.43;;;8.70;85.60;;;;;;5102126;28;20187;-86
2023/04/18 02:45:10;;;;;;;12.13;11.03;;;8.70;86.10;;;;;;5101993;28;20187;-88
2023/04/18 02:47:37;;;;;;;13.70;12.30;;;8.70;86.40;;;;;;5102191;28;20236;-87
2023/04/18 02:50:03;;;;;;;13.23;11.80;;;8.70;86.70;;;;;;5102524;28;20191;-86
2023/04/18 02:52:29;;;;;;;13.20;11.90;;;8.80;86.20;;;;;;5101774;28;20702;-88
2023/04/18 02:54:55;;;;;;;12.87;11.53;;;8.80;85.60;;;;;;5100801;28;20491;-88
2023/04/18 02:57:21;;;;;;;14.87;12.50;;;8.80;85.40;;;;;;5101587;28;20184;-87
2023/04/18 02:59:46;;;;;;;13.03;11.73;;;8.70;86.50;;;;;;5101135;28;20203;-87
2023/04/18 03:02:12;;;;;;;12.40;11.27;;;8.80;85.90;;;;;;5102163;28;20266;-89
2023/04/18 03:04:38;;;;;;;13.43;11.67;;;8.70;86.50;;;;;;5100921;28;20595;-89
2023/04/18 03:07:03;;;;;;;13.30;12.20;;;8.70;86.10;;;;;;5101914;28;20281;-87
2023/04/18 03:09:29;;;;;;;12.17;10.93;;;8.70;86.20;;;;;;5101040;28;20261;-89
2023/04/18 03:11:54;;;;;;;13.60;12.30;;;8.80;86.30;;;;;;5102882;28;20225;-88
2023/04/18 03:14:20;;;;;;;13.27;12.07;;;8.80;85.50;;;;;;5102452;28;20175;-87
2023/04/18 03:16:46;;;;;;;13.80;12.50;;;8.80;85.70;;;;;;5100959;28;20817;-86
2023/04/18 03:19:11;;;;;;;13.63;12.33;;;8.80;86.10;;;;;;5102739;28;20229;-87
2023/04/18 03:21:37;;;;;;;12.87;11.57;;;8.70;86.30;;;;;;5101703;28;20545;-88
2023/04/18 03:24:03;;;;;;;14.60;13.07;;;8.60;86.60;;;;;;5101154;28;20194;-87
2023/04/18 03:26:28;;;;;;;13.30;12.03;;;8.60;86.70;;;;;;5081546;28;20183;-89
2023/04/18 03:28:54;;;;;;;13.17;11.87;;;8.60;86.90;;;;;;5098465;28;20225;-89
2023/04/18 03:31:20;;;;;;;12.80;11.50;;;8.60;86.90;;;;;;5100797;28;20170;-88
2023/04/18 03:33:46;;;;;;;13.50;12.23;;;8.60;86.80;;;;;;5121100;28;20175;-89
2023/04/18 03:36:16;;;;;;;12.90;11.67;;;8.60;86.70;;;;;;5101147;28;20187;-90
2023/04/18 03:38:41;;;;;;;14.27;12.83;;;8.70;86.50;;;;;;5099781;28;20243;-91
2023/04/18 03:41:07;;;;;;;12.93;11.70;;;8.70;86.80;;;;;;5099440;28;20195;-87
2023/04/18 03:43:33;;;;;;;12.93;11.73;;;8.70;86.80;;;;;;5099725;28;20643;-88
2023/04/18 03:45:58;;;;;;;12.93;11.73;;;8.80;86.40;;;;;;5099965;28;20178;-88
2023/04/18 03:48:24;;;;;;;12.90;11.70;;;8.80;86.00;;;;;;5101273;28;20203;-89
2023/04/18 03:50:50;;;;;;;12.73;11.53;;;8.70;85.10;;;;;;5102296;28;20199;-87
2023/04/18 03:53:16;;;;;;;12.83;11.73;;;8.70;85.90;;;;;;5098344;28;20175;-89
2023/04/18 03:55:42;;;;;;;13.97;12.67;;;8.60;86.00;;;;;;5081429;28;20666;-87
2023/04/18 03:58:08;;;;;;;14.33;12.47;;;8.60;85.70;;;;;;5082506;28;20236;-87
2023/04/18 04:00:34;;;;;;;15.57;11.63;;;8.60;85.60;;;;;;5082324;28;20215;-87
2023/04/18 04:03:00;;;;;;;16.83;12.10;;;8.60;85.50;;;;;;5099939;28;20178;-91
2023/04/18 04:05:26;;;;;;;12.47;11.20;;;8.70;84.90;;;;;;5100246;28;20186;-88
2023/04/18 04:07:51;;;;;;;13.07;11.87;;;8.70;84.70;;;;;;5100647;28;20210;-87
2023/04/18 04:10:17;;;;;;;16.37;11.93;;;8.70;84.10;;;;;;5099846;28;20281;-90
2023/04/18 04:12:43;;;;;;;13.40;12.07;;;8.70;83.50;;;;;;5097856;28;20236;-87
2023/04/18 04:15:09;;;;;;;13.03;11.83;;;8.70;83.70;;;;;;5080615;28;20247;-86
2023/04/18 04:17:35;;;;;;;12.47;11.27;;;8.70;82.90;;;;;;5080214;28;20179;-88
2023/04/18 04:20:01;;;;;;;12.67;11.50;;;8.70;82.70;;;;;;5092882;28;20198;-89
2023/04/18 04:22:26;;;;;;;13.00;11.67;;;8.60;83.20;;;;;;5099797;28;20205;-88
2023/04/18 04:24:52;;;;;;;13.77;12.43;;;8.60;83.30;;;;;;5098163;28;20183;-88
2023/04/18 04:27:19;;;;;;;12.93;11.73;;;8.60;82.70;;;;;;5098364;28;20202;-90
2023/04/18 04:29:44;;;;;;;13.47;12.17;;;8.60;82.40;;;;;;5099017;28;20191;-91
2023/04/18 04:32:11;;;;;;;12.53;11.33;;;8.60;81.80;;;;;;5104972;28;20205;-87
2023/04/18 04:34:40;;;;;;;12.37;11.17;;;8.60;81.90;;;;;;5118601;28;20167;-87
2023/04/18 04:37:05;;;;;;;11.73;10.63;;;8.50;82.20;;;;;;5118953;28;20196;-88
2023/04/18 04:39:31;;;;;;;12.53;11.33;;;8.50;82.10;;;;;;5102794;28;20203;-88
2023/04/18 04:41:56;;;;;;;11.80;10.57;;;8.50;82.30;;;;;;5105146;28;20262;-88
2023/04/18 04:44:24;;;;;;;13.20;11.90;;;8.40;82.10;;;;;;5090103;28;20217;-85
2023/04/18 04:46:51;;;;;;;13.17;11.87;;;8.50;81.70;;;;;;5083687;28;20172;-88
2023/04/18 04:49:16;;;;;;;14.13;12.83;;;8.50;81.70;;;;;;5086096;28;20213;-90
2023/04/18 04:51:43;;;;;;;15.80;14.30;;;8.50;82.20;;;;;;5083358;28;20168;-90
2023/04/18 04:54:08;;;;;;;13.67;11.73;;;8.50;81.70;;;;;;5082684;28;20642;-87
2023/04/18 04:56:34;;;;;;;13.20;11.90;;;8.50;81.70;;;;;;5082593;28;20187;-87
2023/04/18 04:59:00;;;;;;;12.57;11.43;;;8.50;80.50;;;;;;5083511;28;20196;-89
2023/04/18 05:01:26;;;;;;;12.70;11.13;;;8.50;80.40;;;;;;5088726;28;20180;-88
2023/04/18 05:03:51;;;;;;;13.63;11.87;;;8.50;80.50;;;;;;5123874;28;20185;-87
2023/04/18 05:06:19;;;;;;;12.17;11.07;;;8.50;80.60;;;;;;5118176;28;20234;-88
2023/04/18 05:08:47;;;;;;;13.20;12.00;;;8.60;80.50;;;;;;5082281;28;20295;-89
2023/04/18 05:11:13;;;;;;;12.97;11.70;;;8.60;80.20;;;;;;5081880;28;20212;-87
2023/04/18 05:13:39;;;;;;;14.73;12.93;;;8.50;79.20;;;;;;5103986;28;20202;-87
2023/04/18 05:16:06;;;;;;;15.10;13.60;;;8.60;80.10;;;;;;5111166;28;20171;-88
2023/04/18 05:18:32;;;;;;;13.27;12.07;;;8.50;79.20;;;;;;5107316;28;20890;-89
2023/04/18 05:21:00;;;;;;;13.47;12.17;;;8.40;79.80;;;;;;5109955;28;20198;-88
2023/04/18 05:23:26;;;;;;;13.30;12.00;;;8.40;80.00;;;;;;5114492;28;20193;-88
2023/04/18 05:25:51;;;;;;;11.87;10.77;;;8.40;79.60;;;;;;5102518;28;20182;-88
2023/04/18 05:28:28;;;;;;;13.73;12.43;;;8.30;80.80;;;;;;5110941;28;20884;-88
2023/04/18 05:31:14;;;;;;;13.67;12.27;;;8.40;80.60;;;;;;5107166;28;20194;-88
2023/04/18 05:33:40;;;;;;;12.23;11.03;;;8.40;79.60;;;;;;5105057;28;20385;-90
2023/04/18 05:36:06;;;;;;;12.30;10.83;;;8.40;79.60;;;;;;5115446;28;20173;-89
2023/04/18 05:38:32;;;;;;;12.57;11.37;;;8.50;79.00;;;;;;5111792;28;20183;-88
2023/04/18 05:40:59;;;;;;;13.10;11.83;;;8.40;79.30;;;;;;5112226;28;20199;-88
2023/04/18 05:43:25;;;;;;;12.30;11.13;;;8.50;79.60;;;;;;5109988;28;20181;-88
2023/04/18 05:45:51;;;;;;;13.73;11.00;;;8.50;79.60;;;;;;5107224;28;20548;-89
2023/04/18 05:48:17;;;;;;;12.60;11.07;;;8.40;80.20;;;;;;5101479;28;20210;-85
2023/04/18 05:50:43;;;;;;;12.90;11.60;;;8.50;79.60;;;;;;5118737;28;20224;-87
2023/04/18 05:53:08;;;;;;;13.17;11.90;;;8.50;80.10;;;;;;5095958;28;20191;-90
2023/04/18 05:55:34;;;;;;;13.30;11.93;;;8.60;80.20;;;;;;5095467;28;20255;-91
2023/04/18 05:58:00;;;;;;;13.27;11.93;;;8.60;80.40;;;;;;5097736;28;20191;-88
2023/04/18 06:00:26;;;;;;;12.73;11.53;;;8.70;80.00;;;;;;5099311;28;20277;-90
2023/04/18 06:02:51;;;;;;;13.03;11.40;;;8.70;81.00;;;;;;5095134;28;20186;-89
2023/04/18 06:05:17;;;;;;;12.83;11.43;;;8.70;79.90;;;;;;5097495;28;20271;-88
2023/04/18 06:07:43;;;;;;;12.60;11.40;;;8.70;80.20;;;;;;5097885;28;20211;-88
2023/04/18 06:10:12;;;;;;;13.33;12.03;;;8.70;79.90;;;;;;5115156;27;20194;-91
2023/04/18 06:12:38;;;;;;;12.13;10.93;;;8.70;80.00;;;;;;5098433;28;20261;-88
2023/04/18 06:15:04;;;;;;;12.87;11.50;;;8.80;79.30;;;;;;5097688;28;20178;-88
2023/04/18 06:17:30;;;;;;;14.00;12.57;;;8.80;79.80;;;;;;5094373;28;20391;-86
2023/04/18 06:19:55;;;;;;;12.73;11.50;;;8.70;79.80;;;;;;5096341;28;20206;-88
2023/04/18 06:22:21;;;;;;;14.67;12.00;;;8.70;80.20;;;;;;5095796;28;20187;-88
2023/04/18 06:24:47;;;;;;;12.30;11.10;;;8.60;80.90;;;;;;5094409;28;20190;-90
2023/04/18 06:27:12;;;;;;;12.33;11.23;;;8.50;81.40;;;;;;5092634;28;20282;-87
2023/04/18 06:29:38;;;;;;;12.43;11.33;;;8.60;81.40;;;;;;5096951;28;20249;-87
2023/04/18 06:32:04;;;;;;;13.57;12.17;;;8.70;81.20;;;;;;5094374;28;20186;-89
2023/04/18 06:34:30;;;;;;;13.53;11.40;;;8.70;80.20;;;;;;5097532;28;20236;-87
2023/04/18 06:36:56;;;;;;;13.20;11.87;;;8.60;80.80;;;;;;5099117;28;20183;-87
2023/04/18 06:39:21;;;;;;;13.50;12.37;;;8.50;81.50;;;;;;5097799;28;20375;-89
2023/04/18 06:41:48;;;;;;;11.63;10.50;;;8.50;81.60;;;;;;5097200;28;20187;-89
2023/04/18 06:44:14;;;;;;;12.70;11.50;;;8.60;81.50;;;;;;5097589;28;20776;-88
2023/04/18 06:46:40;;;;;;;12.67;11.37;;;8.70;80.90;;;;;;5094937;28;20179;-86
2023/04/18 06:49:05;;;;;;;12.30;11.13;;;8.80;80.90;;;;;;5093662;28;21105;-88
2023/04/18 06:51:32;;;;;;;11.90;10.80;;;8.80;80.10;;;;;;5100132;28;20179;-89
2023/04/18 06:53:57;;;;;;;12.93;11.63;;;8.80;80.60;;;;;;5098156;28;20228;-87
2023/04/18 06:56:23;;;;;;;11.93;10.83;;;8.80;80.70;;;;;;5098422;28;21097;-87
2023/04/18 06:58:51;;;;;;;12.73;11.43;;;8.80;81.50;;;;;;5095662;28;20190;-89
2023/04/18 07:01:20;;;;;;;13.17;11.97;;;8.80;80.90;;;;;;5095129;28;20299;-90
2023/04/18 07:03:45;;;;;;;13.23;11.83;;;8.80;80.70;;;;;;5096750;28;20237;-88
2023/04/18 07:06:11;;;;;;;12.73;11.43;;;8.80;81.30;;;;;;5093333;28;20194;-87
2023/04/18 07:08:37;;;;;;;12.80;11.43;;;8.80;82.10;;;;;;5096231;28;20213;-86
2023/04/18 07:11:10;;;;;;;13.57;12.27;;;8.90;82.30;;;;;;5095085;28;20183;-89
2023/04/18 07:13:36;;;;;;;12.63;11.33;;;8.90;81.20;;;;;;5093430;28;20187;-87
2023/04/18 07:16:03;;;;;;;12.80;11.70;;;8.90;81.70;;;;;;5091438;28;20263;-88
2023/04/18 07:18:29;;;;;;;12.60;11.37;;;9.00;81.70;;;;;;5091973;28;20183;-90
2023/04/18 07:20:54;;;;;;;13.63;11.67;;;9.10;81.50;;;;;;5089625;28;20233;-86
2023/04/18 07:23:20;;;;;;;13.10;11.83;;;9.10;81.50;;;;;;5093617;28;20229;-90
2023/04/18 07:25:46;;;;;;;13.97;12.67;;;9.10;81.20;;;;;;5093400;28;20215;-90
2023/04/18 07:28:11;;;;;;;12.20;10.93;;;9.20;81.10;;;;;;5097072;28;20217;-90
2023/04/18 07:30:37;;;;;;;14.67;13.10;;;9.30;81.40;;;;;;5095201;28;20262;-84
2023/04/18 07:33:03;;;;;;;14.00;12.17;;;9.40;80.50;;;;;;5094345;28;20263;-86
2023/04/18 07:35:29;;;;;;;16.53;13.30;;;9.50;80.50;;;;;;5089623;28;20607;-85
2023/04/18 07:37:54;;;;;;;13.93;12.63;;;9.50;80.00;;;;;;5089536;28;20661;-85
2023/04/18 07:40:23;;;;;;;14.13;12.70;;;9.40;80.70;;;;;;5092029;28;20206;-88
2023/04/18 07:42:49;;;;;;;14.73;13.33;;;9.40;81.30;;;;;;5089926;28;20269;-86
2023/04/18 07:45:14;;;;;;;14.63;13.13;;;9.50;80.80;;;;;;5091659;28;20221;-85
2023/04/18 07:47:40;;;;;;;13.83;12.43;;;9.60;80.60;;;;;;5091094;28;20251;-86
2023/04/18 07:50:07;;;;;;;13.83;12.43;;;9.70;80.60;;;;;;5089869;28;20219;-86
2023/04/18 07:52:33;;;;;;;13.77;12.37;;;9.70;80.00;;;;;;5089932;28;20179;-87
2023/04/18 07:54:59;;;;;;;14.07;12.57;;;9.80;80.00;;;;;;5091484;28;20210;-86
2023/04/18 07:57:24;;;;;;;14.43;12.30;;;9.90;80.40;;;;;;5093887;28;20187;-86
2023/04/18 07:59:52;;;;;;;13.90;12.40;;;10.00;79.50;;;;;;5092686;28;20207;-86
2023/04/18 08:02:19;;;;;;;13.73;12.43;;;10.00;78.90;;;;;;5095316;28;20191;-88
2023/04/18 08:04:45;;;;;;;13.70;12.30;;;10.00;78.90;;;;;;5094909;28;20191;-88
2023/04/18 08:07:11;;;;;;;15.87;12.70;;;10.20;78.60;;;;;;5095405;28;20310;-90
2023/04/18 08:09:37;;;;;;;14.03;12.73;;;10.30;77.80;;;;;;5095119;28;20731;-90
2023/04/18 08:12:03;;;;;;;13.80;12.50;;;10.40;77.40;;;;;;5093170;28;20190;-90
2023/04/18 08:14:28;;;;;;;14.00;11.87;;;10.40;77.20;;;;;;5092132;28;20179;-89
2023/04/18 08:16:54;;;;;;;12.73;11.43;;;10.60;77.70;;;;;;5091455;28;20791;-90
2023/04/18 08:19:20;;;;;;;14.93;13.43;;;10.60;76.50;;;;;;5093839;28;20214;-91
2023/04/18 08:21:45;;;;;;;33.03;29.87;;;10.70;76.30;;;;;;5092795;28;20183;-88
2023/04/18 08:24:11;;;;;;;14.37;13.03;;;10.80;77.00;;;;;;5093329;28;20213;-90
2023/04/18 08:26:36;;;;;;;13.60;12.40;;;10.90;76.30;;;;;;5096457;28;20197;-88
2023/04/18 08:29:02;;;;;;;14.43;13.03;;;10.90;76.20;;;;;;5094885;28;20204;-89
2023/04/18 08:31:28;;;;;;;13.20;12.10;;;10.90;76.20;;;;;;5090597;28;20953;-87
2023/04/18 08:33:53;;;;;;;15.60;12.33;;;10.90;76.40;;;;;;5093072;28;20183;-86
2023/04/18 08:36:20;;;;;;;13.57;12.20;;;10.90;76.20;;;;;;5093472;28;20184;-88
2023/04/18 08:38:46;;;;;;;13.33;12.13;;;10.90;76.00;;;;;;5094541;28;20192;-86
2023/04/18 08:41:12;;;;;;;14.00;12.63;;;10.90;76.40;;;;;;5092594;28;20193;-89
2023/04/18 08:43:38;;;;;;;14.57;13.20;;;10.90;76.30;;;;;;5094570;28;20197;-90
2023/04/18 08:46:04;;;;;;;13.87;12.53;;;10.90;76.00;;;;;;5092651;28;20689;-86
2023/04/18 08:48:30;;;;;;;13.67;12.33;;;10.80;76.30;;;;;;5091068;28;20302;-88
2023/04/18 08:51:00;;;;;;;15.83;14.07;;;10.70;77.50;;;;;;5092476;28;20207;-88
2023/04/18 08:53:26;;;;;;;13.93;12.47;;;10.70;77.70;;;;;;5094479;28;20244;-88
2023/04/18 08:55:55;;;;;;;14.80;13.30;;;10.80;77.10;;;;;;5094260;28;20258;-88
2023/04/18 08:58:22;;;;;;;14.40;12.90;;;10.70;77.30;;;;;;5097400;28;20530;-90
2023/04/18 09:00:51;;;;;;;13.80;12.40;;;10.60;78.00;;;;;;5096931;28;20233;-86
2023/04/18 09:03:38;;;;;;;13.77;12.47;;;10.70;78.20;;;;;;5096854;28;20184;-87
2023/04/18 09:06:13;;;;;;;13.07;11.77;;;10.60;77.30;;;;;;5092596;28;20466;-87
2023/04/18 09:08:43;;;;;;;14.57;13.17;;;10.70;77.70;;;;;;5093867;28;20203;-89
2023/04/18 09:11:21;;;;;;;14.87;13.57;;;10.80;78.30;;;;;;5094700;28;20200;-88
2023/04/18 09:13:46;;;;;;;15.03;13.63;;;10.80;77.70;;;;;;5095104;28;20182;-88
2023/04/18 09:16:13;;;;;;;14.77;13.00;;;10.70;77.00;;;;;;5095198;28;21242;-87
2023/04/18 09:18:41;;;;;;;14.90;13.50;;;10.60;77.80;;;;;;5096217;28;20187;-87
2023/04/18 09:21:19;;;;;;;15.03;13.63;;;10.70;78.00;;;;;;5099041;28;20178;-89
2023/04/18 09:23:49;;;;;;;14.17;12.67;;;10.80;78.10;;;;;;5099282;28;20241;-89
2023/04/18 09:26:31;;;;;;;13.50;12.20;;;10.90;77.30;;;;;;5092507;28;20197;-87
2023/04/18 09:28:57;;;;;;;14.50;13.13;;;11.10;77.40;;;;;;5093220;28;20218;-88
2023/04/18 09:31:22;;;;;;;15.63;12.90;;;11.20;75.80;;;;;;5094125;28;20206;-87
2023/04/18 09:33:55;;;;;;;14.83;13.33;;;11.30;75.60;;;;;;5094761;28;20270;-86
2023/04/18 09:36:23;;;;;;;14.43;13.03;;;11.50;74.80;;;;;;5092812;28;20191;-88
2023/04/18 09:38:51;;;;;;;14.70;12.47;;;11.60;74.60;;;;;;5094836;28;20195;-87
2023/04/18 09:41:17;;;;;;;14.87;13.33;;;11.70;74.90;;;;;;5093594;28;20793;-86
2023/04/18 09:43:44;;;;;;;15.60;13.90;;;11.80;73.60;;;;;;5093208;28;20555;-87
2023/04/18 09:46:11;;;;;;;14.57;12.87;;;11.90;72.80;;;;;;5093988;28;20189;-87
2023/04/18 09:48:38;;;;;;;13.90;12.60;;;11.90;73.00;;;;;;5094104;28;20202;-88
2023/04/18 09:51:09;;;;;;;14.67;12.73;;;11.80;73.80;;;;;;5089210;28;20257;-85
2023/04/18 09:53:40;;;;;;;14.40;12.90;;;11.80;73.40;;;;;;5093519;28;20217;-86
2023/04/18 09:56:11;;;;;;;14.33;12.97;;;11.80;73.30;;;;;;5094314;28;20202;-86
2023/04/18 09:58:41;;;;;;;14.20;12.80;;;11.90;73.70;;;;;;5089585;28;20189;-88
2023/04/18 10:01:07;;;;;;;14.20;12.90;;;11.80;73.80;;;;;;5086466;28;20194;-89
2023/04/18 10:03:42;;;;;;;13.77;12.47;;;11.90;74.30;;;;;;5092339;28;20196;-88
2023/04/18 10:06:09;;;;;;;13.70;12.40;;;12.00;74.00;;;;;;5093693;28;20193;-89
2023/04/18 10:08:35;;;;;;;14.40;13.10;;;12.00;74.30;;;;;;5093983;28;20235;-88
2023/04/18 10:11:01;;;;;;;14.40;13.10;;;12.10;73.60;;;;;;5085852;28;20207;-88
2023/04/18 10:13:28;;;;;;;14.63;13.33;;;12.10;74.20;;;;;;5088514;28;20182;-88
2023/04/18 10:15:54;;;;;;;13.80;12.40;;;12.20;74.10;;;;;;5094421;28;20178;-89
2023/04/18 10:18:23;;;;;;;15.63;12.87;;;12.20;73.60;;;;;;5094952;28;20638;-86
2023/04/18 10:20:49;;;;;;;13.70;12.40;;;12.30;73.30;;;;;;5093076;28;20206;-88
2023/04/18 10:23:37;;;;;;;15.23;13.73;;;12.20;74.10;;;;;;5097772;28;20220;-89
2023/04/18 10:26:04;;;;;;;13.80;12.57;;;12.10;74.10;;;;;;5096135;28;20182;-89
2023/04/18 10:28:50;;;;;;;14.50;13.10;;;12.00;75.00;;;;;;5094171;28;20202;-88
2023/04/18 10:31:15;;;;;;;13.77;12.47;;;11.90;75.10;;;;;;5094046;28;20184;-89
2023/04/18 10:33:47;;;;;;;17.23;14.63;;;11.90;76.10;;;;;;5097655;28;20209;-85
2023/04/18 10:36:15;;;;;;;14.30;13.00;;;11.90;75.90;;;;;;5099829;28;20189;-90
2023/04/18 10:38:54;;;;;;;14.00;12.57;;;12.00;75.20;;;;;;5101282;28;20168;-87
2023/04/18 10:41:21;;;;;;;13.70;12.40;;;12.10;75.00;;;;;;5097324;28;20217;-88
2023/04/18 10:44:05;;;;;;;13.57;12.37;;;12.30;74.80;;;;;;5099008;28;20194;-86
2023/04/18 10:46:32;;;;;;;16.50;15.00;;;12.50;74.00;;;;;;5096979;28;20196;-87
2023/04/18 10:49:19;;;;;;;21.67;19.90;;;12.70;71.90;;;;;;5099831;28;20208;-88
2023/04/18 10:52:02;;;;;;;15.70;14.17;;;12.80;71.00;;;;;;5098864;28;20205;-88
2023/04/18 10:54:29;;;;;;;13.40;12.20;;;13.10;70.20;;;;;;5096813;28;20193;-87
2023/04/18 10:56:57;;;;;;;13.67;12.53;;;13.50;69.00;;;;;;5096658;28;20514;-89
2023/04/18 10:59:24;;;;;;;14.20;12.90;;;13.40;69.00;;;;;;5098958;28;20283;-89
2023/04/18 11:02:05;;;;;;;14.80;13.47;;;13.40;68.80;;;;;;5091959;28;20186;-88
2023/04/18 11:04:31;;;;;;;13.87;12.67;;;13.30;69.20;;;;;;5095184;28;20198;-88
2023/04/18 11:06:57;;;;;;;14.30;12.63;;;13.30;69.80;;;;;;5095864;28;20213;-89
2023/04/18 11:09:23;;;;;;;14.30;12.90;;;13.50;69.70;;;;;;5095182;28;20229;-88
2023/04/18 11:12:09;;;;;;;14.40;13.10;;;13.80;68.30;;;;;;5094212;28;20175;-87
2023/04/18 11:14:40;;;;;;;13.67;12.37;;;14.00;67.00;;;;;;5094562;28;20177;-88
2023/04/18 11:17:22;;;;;;;15.10;13.70;;;14.00;67.90;;;;;;5097408;28;20184;-87
2023/04/18 11:19:49;;;;;;;15.13;13.73;;;13.90;67.70;;;;;;5095032;28;20237;-89
2023/04/18 11:22:16;;;;;;;14.90;13.50;;;13.90;68.00;;;;;;5097486;28;20168;-90
2023/04/18 11:24:41;;;;;;;13.47;12.30;;;14.00;67.40;;;;;;5097267;28;20307;-86
2023/04/18 11:27:11;;;;;;;12.80;11.70;;;13.80;68.50;;;;;;5097754;28;20209;-88
2023/04/18 11:29:37;;;;;;;13.53;12.40;;;13.80;68.50;;;;;;5097660;28;20269;-88
2023/04/18 11:32:08;;;;;;;13.53;12.20;;;13.80;68.20;;;;;;5094919;28;20171;-88
2023/04/18 11:34:34;;;;;;;12.30;11.10;;;13.80;68.10;;;;;;5096292;28;20746;-89
2023/04/18 11:37:00;;;;;;;13.13;11.77;;;13.80;68.70;;;;;;5098208;28;20183;-90
2023/04/18 11:39:26;;;;;;;12.87;11.70;;;13.70;68.70;;;;;;5097990;28;20184;-89
2023/04/18 11:41:55;;;;;;;13.07;11.87;;;13.90;68.80;;;;;;5094490;28;20182;-87
2023/04/18 11:44:24;;;;;;;12.53;11.43;;;14.10;68.00;;;;;;5096379;28;20174;-88
2023/04/18 11:46:53;;;;;;;12.70;11.60;;;14.50;66.00;;;;;;5095302;28;20184;-90
2023/04/18 11:49:30;;;;;;;12.30;11.20;;;14.80;64.80;;;;;;5097248;28;20199;-87
2023/04/18 11:51:57;;;;;;;12.30;11.10;;;14.90;64.40;;;;;;5094521;28;20187;-86
2023/04/18 11:54:36;;;;;;;13.00;11.83;;;14.80;64.10;;;;;;5094175;28;20540;-87
2023/04/18 11:57:02;;;;;;;11.93;10.83;;;14.80;65.80;;;;;;5097067;28;20170;-87
2023/04/18 11:59:28;;;;;;;13.43;12.10;;;14.80;64.30;;;;;;5095898;28;20197;-87
2023/04/18 12:02:01;;;;;;;13.23;11.90;;;14.80;64.10;;;;;;5089257;28;20202;-88
2023/04/18 12:04:27;;;;;;;13.97;12.00;;;14.80;63.80;;;;;;5090527;28;20183;-89
2023/04/18 12:06:53;;;;;;;12.43;11.33;;;14.70;65.00;;;;;;5088805;28;20191;-88
2023/04/18 12:09:20;;;;;;;11.77;10.67;;;14.60;64.90;;;;;;5091340;28;20669;-88
2023/04/18 12:11:59;;;;;;;12.70;11.60;;;14.60;65.60;;;;;;5092233;28;20203;-89
2023/04/18 12:14:26;;;;;;;12.90;11.60;;;14.60;65.80;;;;;;5093906;28;20183;-90
2023/04/18 12:16:52;;;;;;;11.67;10.60;;;14.60;66.20;;;;;;5093756;28;20244;-88
2023/04/18 12:19:19;;;;;;;11.17;10.20;;;14.80;66.30;;;;;;5088561;28;20233;-87
2023/04/18 12:22:15;;;;;;;12.30;11.20;;;14.90;65.70;;;;;;5092768;28;20187;-89
2023/04/18 12:24:42;;;;;;;11.33;10.30;;;15.00;65.20;;;;;;5075367;28;20257;-89
2023/04/18 12:27:07;;;;;;;11.60;10.60;;;15.30;64.20;;;;;;5094727;28;20189;-87
2023/04/18 12:29:33;;;;;;;11.27;10.17;;;15.90;61.80;;;;;;5096882;28;20204;-87
2023/04/18 12:31:59;;;;;;;12.40;11.20;;;16.30;61.50;;;;;;5090723;28;20187;-86
2023/04/18 12:34:25;;;;;;;11.73;10.70;;;16.70;58.30;;;;;;5092994;28;20184;-87